createdAt,value
2018-05-26T00:00:02.261Z,18.72
2018-05-26T00:02:28.197Z,18.39
2018-05-26T00:04:54.136Z,18.87
2018-05-26T00:07:20.057Z,18.79
2018-05-26T00:09:46.025Z,18.71
2018-05-26T00:12:11.966Z,18.80
2018-05-26T00:14:37.944Z,18.75
2018-05-26T00:17:03.895Z,18.91
2018-05-26T00:19:29.857Z,18.84
2018-05-26T00:21:55.795Z,18.77
2018-05-26T00:24:21.780Z,18.68
2018-05-26T00:26:47.722Z,18.31
2018-05-26T00:29:13.682Z,18.65
2018-05-26T00:31:39.631Z,18.83
2018-05-26T00:34:05.576Z,18.55
2018-05-26T00:36:31.553Z,18.85
2018-05-26T00:38:57.482Z,18.88
2018-05-26T00:41:23.412Z,18.72
2018-05-26T00:43:49.394Z,18.64
2018-05-26T00:46:15.441Z,18.36
2018-05-26T00:48:41.396Z,18.52
2018-05-26T00:51:07.340Z,18.24
2018-05-26T00:53:33.285Z,18.21
2018-05-26T00:55:59.282Z,18.38
2018-05-26T00:58:25.231Z,18.67
2018-05-26T01:00:51.181Z,18.26
2018-05-26T01:03:17.124Z,18.17
2018-05-26T01:05:43.093Z,18.37
2018-05-26T01:08:09.060Z,18.13
2018-05-26T01:10:35.014Z,18.21
2018-05-26T01:13:00.966Z,18.27
2018-05-26T01:15:26.941Z,17.80
2018-05-26T01:17:52.884Z,17.94
2018-05-26T01:20:18.856Z,17.93
2018-05-26T01:22:44.869Z,17.87
2018-05-26T01:25:10.831Z,17.94
2018-05-26T01:27:36.787Z,18.26
2018-05-26T01:30:02.749Z,18.06
2018-05-26T01:32:28.697Z,18.06
2018-05-26T01:34:54.650Z,17.84
2018-05-26T01:37:20.600Z,17.70
2018-05-26T01:39:46.557Z,17.65
2018-05-26T01:42:12.517Z,17.53
2018-05-26T01:44:38.460Z,17.90
2018-05-26T01:47:04.411Z,17.92
2018-05-26T01:49:30.368Z,17.67
2018-05-26T01:51:56.338Z,17.40
2018-05-26T01:54:22.279Z,17.43
2018-05-26T01:56:48.234Z,17.20
2018-05-26T01:59:14.178Z,17.33
2018-05-26T02:01:40.151Z,17.60
2018-05-26T02:04:06.090Z,17.63
2018-05-26T02:06:32.055Z,17.56
2018-05-26T02:08:58.007Z,17.55
2018-05-26T02:11:23.951Z,17.52
2018-05-26T02:13:49.899Z,17.25
2018-05-26T02:16:15.844Z,17.24
2018-05-26T02:18:41.781Z,17.21
2018-05-26T02:21:07.753Z,17.40
2018-05-26T02:23:33.711Z,17.68
2018-05-26T02:25:59.689Z,17.60
2018-05-26T02:28:25.625Z,17.77
2018-05-26T02:30:51.583Z,17.36
2018-05-26T02:33:17.526Z,17.36
2018-05-26T02:35:43.505Z,17.31
2018-05-26T02:38:09.475Z,17.54
2018-05-26T02:40:35.414Z,17.62
2018-05-26T02:43:01.345Z,17.35
2018-05-26T02:45:27.332Z,17.09
2018-05-26T02:47:53.288Z,17.31
2018-05-26T02:50:19.254Z,17.36
2018-05-26T02:52:45.191Z,17.71
2018-05-26T02:55:11.160Z,17.40
2018-05-26T02:57:37.109Z,17.16
2018-05-26T03:00:03.065Z,16.89
2018-05-26T03:02:28.996Z,16.61
2018-05-26T03:04:54.928Z,16.68
2018-05-26T03:07:20.857Z,16.76
2018-05-26T03:09:46.793Z,17.05
2018-05-26T03:12:12.767Z,17.14
2018-05-26T03:14:38.724Z,16.78
2018-05-26T03:17:04.681Z,16.91
2018-05-26T03:19:30.647Z,16.80
2018-05-26T03:21:56.637Z,16.78
2018-05-26T03:24:22.577Z,16.69
2018-05-26T03:26:48.524Z,16.70
2018-05-26T03:29:14.485Z,16.64
2018-05-26T03:31:40.440Z,16.46
2018-05-26T03:34:06.399Z,16.36
2018-05-26T03:36:32.347Z,16.41
2018-05-26T03:38:58.305Z,16.48
2018-05-26T03:41:24.250Z,16.72
2018-05-26T03:43:50.213Z,16.93
2018-05-26T03:46:16.170Z,16.83
2018-05-26T03:48:42.106Z,16.77
2018-05-26T03:51:08.076Z,16.86
2018-05-26T03:53:34.034Z,17.17
2018-05-26T03:55:59.970Z,16.90
2018-05-26T03:58:25.945Z,16.92
2018-05-26T04:00:51.901Z,16.99
2018-05-26T04:03:17.875Z,17.07
2018-05-26T04:05:43.829Z,16.97
2018-05-26T04:08:09.798Z,17.05
2018-05-26T04:10:35.752Z,16.96
2018-05-26T04:13:01.702Z,17.14
2018-05-26T04:15:27.671Z,17.46
2018-05-26T04:17:53.622Z,17.55
2018-05-26T04:20:19.556Z,17.65
2018-05-26T04:22:45.504Z,17.50
2018-05-26T04:25:11.495Z,17.84
2018-05-26T04:27:37.477Z,17.95
2018-05-26T04:30:03.473Z,18.09
2018-05-26T04:32:29.639Z,17.93
2018-05-26T04:34:55.622Z,18.22
2018-05-26T04:37:21.600Z,18.20
2018-05-26T04:39:47.555Z,18.52
2018-05-26T04:42:13.520Z,18.58
2018-05-26T04:44:39.471Z,19.00
2018-05-26T04:47:05.409Z,19.01
2018-05-26T04:49:31.358Z,19.06
2018-05-26T04:51:57.291Z,19.33
2018-05-26T04:54:23.293Z,19.51
2018-05-26T04:56:49.243Z,19.53
2018-05-26T04:59:15.195Z,19.37
2018-05-26T05:01:41.140Z,19.84
2018-05-26T05:04:07.078Z,19.37
2018-05-26T05:06:33.038Z,19.74
2018-05-26T05:08:58.996Z,19.89
2018-05-26T05:11:24.924Z,20.20
2018-05-26T05:13:50.881Z,20.39
2018-05-26T05:16:16.806Z,20.31
2018-05-26T05:18:42.746Z,20.20
2018-05-26T05:21:08.715Z,20.73
2018-05-26T05:23:34.675Z,20.30
2018-05-26T05:26:00.724Z,21.01
2018-05-26T05:28:26.690Z,20.86
2018-05-26T05:30:52.643Z,20.90
2018-05-26T05:33:18.617Z,21.60
2018-05-26T05:35:44.558Z,21.90
2018-05-26T05:38:10.555Z,22.09
2018-05-26T05:40:36.577Z,21.76
2018-05-26T05:43:02.571Z,21.80
2018-05-26T05:45:28.532Z,22.44
2018-05-26T05:47:54.575Z,22.80
2018-05-26T05:50:20.570Z,23.06
2018-05-26T05:52:46.581Z,23.45
2018-05-26T05:55:12.900Z,23.51
2018-05-26T05:57:38.949Z,23.43
2018-05-26T06:00:09.496Z,23.97
2018-05-26T06:02:35.479Z,24.23
2018-05-26T06:05:01.495Z,24.04
2018-05-26T06:07:27.449Z,24.56
2018-05-26T06:09:53.385Z,23.94
2018-05-26T06:12:19.378Z,24.61
2018-05-26T06:14:45.382Z,24.73
2018-05-26T06:17:11.341Z,25.11
2018-05-26T06:19:37.343Z,24.56
2018-05-26T06:22:03.308Z,24.99
2018-05-26T06:24:29.247Z,25.03
2018-05-26T06:26:55.186Z,25.16
2018-05-26T06:29:21.142Z,25.74
2018-05-26T06:31:47.151Z,25.99
2018-05-26T06:34:13.114Z,26.52
2018-05-26T06:36:39.080Z,26.16
2018-05-26T06:39:05.077Z,25.66
2018-05-26T06:41:31.032Z,26.87
2018-05-26T06:43:56.984Z,26.92
2018-05-26T06:46:22.938Z,27.00
2018-05-26T06:48:48.935Z,26.99
2018-05-26T06:51:14.989Z,26.87
2018-05-26T06:53:40.945Z,26.89
2018-05-26T06:56:06.893Z,27.21
2018-05-26T06:58:33.173Z,27.48
2018-05-26T07:00:59.133Z,27.80
2018-05-26T07:03:25.123Z,28.41
2018-05-26T07:05:51.115Z,28.12
2018-05-26T07:08:17.088Z,28.46
2018-05-26T07:10:43.050Z,28.45
2018-05-26T07:13:09.031Z,28.27
2018-05-26T07:15:34.973Z,28.54
2018-05-26T07:18:00.959Z,29.12
2018-05-26T07:20:26.916Z,28.40
2018-05-26T07:22:52.879Z,27.38
2018-05-26T07:25:18.812Z,27.43
2018-05-26T07:27:44.777Z,27.09
2018-05-26T07:30:10.711Z,26.89
2018-05-26T07:32:36.675Z,26.98
2018-05-26T07:35:03.676Z,26.89
2018-05-26T07:37:29.688Z,26.75
2018-05-26T07:39:55.652Z,26.64
2018-05-26T07:42:22.640Z,26.53
2018-05-26T07:44:48.620Z,26.61
2018-05-26T07:47:14.619Z,26.70
2018-05-26T07:49:40.594Z,26.51
2018-05-26T07:52:06.658Z,26.41
2018-05-26T07:54:32.854Z,26.39
2018-05-26T07:56:58.819Z,26.84
2018-05-26T07:59:24.785Z,27.12
2018-05-26T08:01:50.793Z,27.02
2018-05-26T08:04:16.772Z,26.98
2018-05-26T08:06:42.752Z,26.69
2018-05-26T08:09:08.703Z,26.82
2018-05-26T08:11:34.748Z,26.72
2018-05-26T08:14:00.747Z,26.61
2018-05-26T08:16:26.879Z,26.80
2018-05-26T08:18:52.874Z,26.34
2018-05-26T08:21:18.863Z,26.44
2018-05-26T08:23:45.094Z,26.42
2018-05-26T08:26:11.393Z,26.30
2018-05-26T08:28:37.641Z,26.30
2018-05-26T08:31:03.657Z,25.78
2018-05-26T08:33:29.639Z,25.92
2018-05-26T08:35:55.597Z,25.99
2018-05-26T08:38:21.640Z,25.85
2018-05-26T08:40:47.588Z,25.71
2018-05-26T08:43:13.533Z,25.70
2018-05-26T08:45:39.558Z,25.55
2018-05-26T08:48:05.522Z,25.53
2018-05-26T08:50:31.493Z,25.51
2018-05-26T08:52:57.440Z,25.21
2018-05-26T08:55:23.400Z,25.22
2018-05-26T08:57:49.358Z,25.27
2018-05-26T09:00:15.310Z,25.01
2018-05-26T09:02:41.316Z,25.16
2018-05-26T09:05:07.305Z,25.06
2018-05-26T09:07:33.250Z,25.17
2018-05-26T09:09:59.225Z,24.97
2018-05-26T09:12:25.188Z,25.01
2018-05-26T09:14:51.222Z,24.94
2018-05-26T09:17:17.150Z,24.83
2018-05-26T09:19:43.213Z,24.86
2018-05-26T09:22:09.163Z,24.81
2018-05-26T09:24:35.127Z,24.98
2018-05-26T09:27:01.066Z,24.78
2018-05-26T09:29:27.090Z,24.56
2018-05-26T09:31:53.091Z,24.95
2018-05-26T09:34:19.035Z,24.83
2018-05-26T09:36:45.051Z,24.72
2018-05-26T09:41:43.573Z,24.64
2018-05-26T09:44:09.549Z,24.67
2018-05-26T09:46:35.503Z,24.92
2018-05-26T09:49:05.724Z,25.00
2018-05-26T09:54:04.155Z,24.81
2018-05-26T09:56:30.174Z,24.79
2018-05-26T09:58:56.259Z,24.91
2018-05-26T10:01:22.265Z,24.80
2018-05-26T10:03:48.236Z,24.81
2018-05-26T10:06:14.180Z,24.66
2018-05-26T10:08:40.125Z,24.88
2018-05-26T10:11:06.089Z,24.84
2018-05-26T10:13:32.171Z,24.99
2018-05-26T10:15:58.148Z,24.90
2018-05-26T10:18:25.178Z,24.95
2018-05-26T10:20:51.254Z,24.89
2018-05-26T10:23:17.218Z,24.83
2018-05-26T10:25:43.323Z,24.65
2018-05-26T10:28:09.280Z,24.68
2018-05-26T10:30:35.222Z,24.91
2018-05-26T10:33:01.168Z,25.14
2018-05-26T10:35:27.197Z,25.15
2018-05-26T10:37:53.117Z,25.16
2018-05-26T10:40:19.101Z,24.88
2018-05-26T10:42:45.066Z,24.83
2018-05-26T10:45:11.034Z,24.95
2018-05-26T10:47:36.989Z,25.05
2018-05-26T10:50:02.998Z,25.00
2018-05-26T10:52:29.156Z,24.95
2018-05-26T10:54:55.134Z,24.86
2018-05-26T10:57:21.079Z,24.95
2018-05-26T10:59:47.023Z,24.96
2018-05-26T11:02:12.998Z,25.05
2018-05-26T11:04:39.000Z,24.95
2018-05-26T11:07:04.972Z,25.11
2018-05-26T11:09:30.988Z,25.12
2018-05-26T11:11:56.940Z,25.01
2018-05-26T11:14:22.942Z,24.97
2018-05-26T11:16:48.869Z,24.86
2018-05-26T11:19:14.885Z,24.98
2018-05-26T11:21:40.823Z,25.02
2018-05-26T11:24:07.052Z,25.06
2018-05-26T11:26:32.751Z,25.10
2018-05-26T11:28:58.726Z,25.23
2018-05-26T11:31:24.665Z,25.12
2018-05-26T11:33:50.618Z,25.20
2018-05-26T11:36:16.581Z,25.16
2018-05-26T11:38:42.518Z,24.94
2018-05-26T11:41:08.480Z,24.98
2018-05-26T11:43:34.527Z,25.04
2018-05-26T11:46:00.463Z,24.90
2018-05-26T11:48:26.421Z,25.00
2018-05-26T11:50:52.376Z,25.00
2018-05-26T11:53:19.430Z,25.06
2018-05-26T11:55:45.370Z,25.28
2018-05-26T11:58:11.352Z,25.26
2018-05-26T12:00:37.299Z,25.16
2018-05-26T12:03:03.335Z,25.22
2018-05-26T12:05:29.285Z,25.14
2018-05-26T12:07:55.224Z,25.16
2018-05-26T12:10:21.165Z,25.11
2018-05-26T12:12:47.138Z,25.40
2018-05-26T12:15:13.131Z,25.36
2018-05-26T12:17:39.101Z,25.32
2018-05-26T12:20:05.033Z,25.13
2018-05-26T12:22:30.971Z,25.25
2018-05-26T12:24:56.914Z,25.31
2018-05-26T12:27:22.855Z,25.26
2018-05-26T12:29:48.785Z,25.15
2018-05-26T12:32:14.752Z,25.11
2018-05-26T12:34:40.684Z,25.25
2018-05-26T12:37:06.722Z,25.15
2018-05-26T12:39:32.693Z,25.12
2018-05-26T12:41:58.653Z,25.33
2018-05-26T12:44:24.604Z,25.36
2018-05-26T12:46:50.544Z,25.31
2018-05-26T12:49:16.498Z,25.41
2018-05-26T12:51:42.504Z,25.46
2018-05-26T12:54:08.485Z,25.26
2018-05-26T12:56:34.458Z,25.16
2018-05-26T12:59:00.439Z,25.18
2018-05-26T13:01:26.445Z,25.31
2018-05-26T13:03:52.490Z,25.29
2018-05-26T13:06:18.469Z,25.45
2018-05-26T13:08:44.425Z,25.33
2018-05-26T13:11:10.428Z,25.58
2018-05-26T13:13:36.385Z,25.48
2018-05-26T13:16:02.321Z,25.48
2018-05-26T13:18:28.297Z,25.28
2018-05-26T13:20:54.357Z,25.30
2018-05-26T13:23:20.314Z,25.48
2018-05-26T13:25:46.269Z,25.36
2018-05-26T13:28:12.249Z,25.27
2018-05-26T13:30:38.193Z,25.15
2018-05-26T13:33:04.164Z,25.25
2018-05-26T13:35:30.097Z,25.35
2018-05-26T13:37:56.053Z,25.31
2018-05-26T13:40:22.009Z,25.30
2018-05-26T13:42:47.977Z,25.33
2018-05-26T13:45:13.929Z,25.30
2018-05-26T13:47:39.918Z,25.34
2018-05-26T13:50:05.851Z,25.35
2018-05-26T13:52:31.811Z,25.35
2018-05-26T13:54:57.828Z,25.23
2018-05-26T13:57:23.745Z,25.36
2018-05-26T13:59:49.678Z,25.30
2018-05-26T14:02:15.629Z,25.28
2018-05-26T14:04:41.580Z,25.24
2018-05-26T14:07:07.541Z,25.23
2018-05-26T14:09:33.474Z,25.21
2018-05-26T14:11:59.414Z,25.18
2018-05-26T14:14:25.369Z,25.24
2018-05-26T14:16:51.328Z,25.29
2018-05-26T14:19:17.288Z,25.32
2018-05-26T14:21:43.241Z,25.20
2018-05-26T14:24:09.235Z,25.18
2018-05-26T14:26:35.197Z,25.24
2018-05-26T14:29:01.186Z,25.24
2018-05-26T14:31:27.152Z,25.18
2018-05-26T14:33:53.143Z,25.30
2018-05-26T14:36:19.118Z,25.26
2018-05-26T14:38:45.083Z,25.25
2018-05-26T14:41:11.094Z,25.19
2018-05-26T14:43:37.110Z,25.19
2018-05-26T14:46:03.088Z,25.23
2018-05-26T14:48:29.064Z,25.17
2018-05-26T14:53:26.762Z,25.21
2018-05-26T14:55:52.747Z,25.14
2018-05-26T14:58:18.731Z,25.25
2018-05-26T15:00:44.729Z,25.31
2018-05-26T15:03:10.708Z,25.28
2018-05-26T15:05:36.780Z,25.26
2018-05-26T15:08:02.739Z,25.38
2018-05-26T15:10:28.671Z,25.37
2018-05-26T15:12:54.685Z,25.36
2018-05-26T15:15:20.615Z,25.36
2018-05-26T15:17:46.610Z,25.33
2018-05-26T15:20:12.590Z,25.45
2018-05-26T15:22:38.769Z,25.46
2018-05-26T15:25:04.724Z,25.39
2018-05-26T15:27:30.695Z,25.45
2018-05-26T15:29:56.683Z,25.42
2018-05-26T15:32:22.652Z,25.39
2018-05-26T15:34:48.623Z,25.41
2018-05-26T15:37:14.560Z,25.28
2018-05-26T15:39:40.513Z,25.30
2018-05-26T15:42:06.469Z,25.37
2018-05-26T15:44:32.446Z,25.44
2018-05-26T15:46:58.434Z,25.35
2018-05-26T15:49:24.417Z,25.41
2018-05-26T15:51:50.362Z,25.43
2018-05-26T15:54:16.337Z,25.30
2018-05-26T15:56:42.279Z,25.38
2018-05-26T15:59:08.268Z,25.41
2018-05-26T16:01:34.225Z,25.36
2018-05-26T16:04:00.221Z,25.30
2018-05-26T16:06:26.163Z,25.34
2018-05-26T16:08:52.121Z,25.39
2018-05-26T16:11:18.091Z,25.51
2018-05-26T16:13:44.061Z,25.42
2018-05-26T16:16:10.060Z,25.38
2018-05-26T16:18:36.052Z,25.53
2018-05-26T16:23:33.247Z,25.56
2018-05-26T16:25:59.239Z,25.55
2018-05-26T16:28:25.209Z,25.54
2018-05-26T16:30:51.188Z,25.54
2018-05-26T16:33:17.210Z,25.45
2018-05-26T16:35:43.259Z,25.43
2018-05-26T16:38:09.238Z,25.46
2018-05-26T16:40:35.346Z,25.44
2018-05-26T16:43:01.291Z,25.43
2018-05-26T16:45:27.266Z,25.42
2018-05-26T16:47:53.223Z,25.44
2018-05-26T16:50:19.217Z,25.49
2018-05-26T16:52:45.204Z,25.43
2018-05-26T16:55:11.361Z,25.48
2018-05-26T16:57:37.474Z,25.44
2018-05-26T17:00:04.521Z,25.41
2018-05-26T17:02:30.543Z,25.34
2018-05-26T17:04:56.621Z,25.33
2018-05-26T17:07:22.678Z,25.41
2018-05-26T17:09:48.664Z,25.41
2018-05-26T17:12:14.643Z,25.42
2018-05-26T17:14:40.646Z,25.46
2018-05-26T17:17:06.811Z,25.43
2018-05-26T17:19:32.865Z,25.35
2018-05-26T17:21:59.874Z,25.31
2018-05-26T17:24:25.918Z,25.38
2018-05-26T17:26:51.998Z,25.31
2018-05-26T17:29:18.018Z,25.31
2018-05-26T17:31:44.059Z,25.35
2018-05-26T17:34:10.075Z,25.36
2018-05-26T17:36:36.111Z,25.28
2018-05-26T17:41:33.379Z,25.38
2018-05-26T17:44:00.348Z,25.32
2018-05-26T17:46:26.308Z,25.29
2018-05-26T17:48:52.399Z,25.31
2018-05-26T17:51:18.422Z,25.29
2018-05-26T17:53:44.414Z,25.33
2018-05-26T17:56:10.436Z,25.33
2018-05-26T17:58:36.411Z,25.24
2018-05-26T18:01:02.426Z,25.26
2018-05-26T18:03:28.416Z,25.27
2018-05-26T18:05:54.385Z,25.22
2018-05-26T18:08:20.389Z,25.22
2018-05-26T18:10:46.387Z,25.20
2018-05-26T18:13:12.479Z,25.21
2018-05-26T18:15:38.456Z,25.17
2018-05-26T18:18:04.408Z,25.20
2018-05-26T18:20:30.462Z,25.26
2018-05-26T18:22:57.069Z,25.17
2018-05-26T18:25:23.050Z,25.09
2018-05-26T18:27:49.004Z,25.12
2018-05-26T18:30:15.015Z,25.04
2018-05-26T18:32:41.809Z,24.94
2018-05-26T18:35:07.784Z,24.89
2018-05-26T18:37:33.784Z,24.86
2018-05-26T18:39:59.790Z,24.75
2018-05-26T18:42:25.817Z,24.73
2018-05-26T18:44:51.781Z,24.64
2018-05-26T18:47:17.769Z,24.56
2018-05-26T18:49:43.751Z,24.42
2018-05-26T18:52:09.725Z,24.39
2018-05-26T18:54:35.677Z,24.29
2018-05-26T18:57:01.696Z,24.29
2018-05-26T18:59:27.728Z,24.20
2018-05-26T19:01:53.678Z,24.08
2018-05-26T19:04:19.657Z,23.87
2018-05-26T19:06:45.613Z,23.85
2018-05-26T19:09:11.586Z,23.78
2018-05-26T19:11:37.596Z,23.88
2018-05-26T19:14:03.596Z,23.83
2018-05-26T19:16:29.602Z,23.84
2018-05-26T19:18:55.566Z,23.96
2018-05-26T19:21:21.524Z,24.02
2018-05-26T19:23:47.505Z,23.94
2018-05-26T19:26:13.477Z,23.88
2018-05-26T19:28:39.684Z,23.92
2018-05-26T19:31:05.703Z,23.74
2018-05-26T19:33:31.683Z,23.43
2018-05-26T19:35:57.751Z,23.42
2018-05-26T19:38:23.780Z,23.35
2018-05-26T19:40:49.804Z,23.23
2018-05-26T19:43:15.822Z,23.38
2018-05-26T19:45:41.832Z,23.11
2018-05-26T19:48:07.781Z,23.10
2018-05-26T19:50:33.752Z,22.92
2018-05-26T19:52:59.709Z,22.78
2018-05-26T19:55:25.662Z,22.93
2018-05-26T19:57:51.700Z,22.72
2018-05-26T20:00:17.691Z,22.78
2018-05-26T20:02:43.667Z,22.85
2018-05-26T20:05:09.732Z,22.93
2018-05-26T20:07:35.675Z,22.89
2018-05-26T20:10:01.615Z,22.77
2018-05-26T20:12:27.558Z,23.03
2018-05-26T20:14:53.554Z,23.13
2018-05-26T20:17:19.520Z,23.16
2018-05-26T20:19:45.480Z,23.08
2018-05-26T20:22:11.443Z,23.10
2018-05-26T20:24:37.399Z,23.18
2018-05-26T20:27:03.348Z,23.06
2018-05-26T20:29:29.313Z,23.05
2018-05-26T20:31:55.286Z,22.67
2018-05-26T20:34:21.249Z,22.36
2018-05-26T20:36:47.207Z,22.50
2018-05-26T20:39:13.149Z,22.57
2018-05-26T20:41:39.108Z,22.56
2018-05-26T20:44:05.090Z,22.29
2018-05-26T20:46:31.062Z,22.42
2018-05-26T20:48:57.030Z,22.98
2018-05-26T20:51:23.053Z,23.15
2018-05-26T20:53:49.010Z,22.86
2018-05-26T20:56:15.006Z,22.64
2018-05-26T20:58:40.978Z,22.61
2018-05-26T21:01:06.946Z,22.97
2018-05-26T21:03:32.923Z,23.56
2018-05-26T21:05:58.857Z,23.93
2018-05-26T21:08:24.834Z,23.94
2018-05-26T21:10:50.987Z,23.44
2018-05-26T21:13:16.919Z,23.80
2018-05-26T21:15:42.856Z,23.30
2018-05-26T21:18:08.832Z,22.91
2018-05-26T21:20:34.827Z,22.96
2018-05-26T21:23:00.776Z,22.18
2018-05-26T21:25:26.734Z,21.93
2018-05-26T21:27:52.733Z,21.83
2018-05-26T21:30:18.693Z,21.88
2018-05-26T21:32:44.732Z,22.14
2018-05-26T21:35:10.697Z,22.04
2018-05-26T21:37:37.109Z,21.97
2018-05-26T21:40:03.098Z,21.84
2018-05-26T21:42:29.038Z,21.73
2018-05-26T21:44:54.966Z,21.73
2018-05-26T21:47:20.975Z,21.81
2018-05-26T21:49:48.933Z,21.75
2018-05-26T21:52:14.877Z,22.00
2018-05-26T21:54:40.856Z,22.56
2018-05-26T21:57:06.874Z,22.47
2018-05-26T21:59:32.828Z,21.92
2018-05-26T22:01:58.816Z,21.49
2018-05-26T22:04:24.776Z,21.34
2018-05-26T22:06:50.709Z,21.40
2018-05-26T22:09:16.661Z,21.11
2018-05-26T22:11:46.418Z,21.49
2018-05-26T22:14:12.400Z,20.78
2018-05-26T22:16:38.356Z,20.69
2018-05-26T22:21:36.069Z,21.23
2018-05-26T22:24:02.051Z,20.99
2018-05-26T22:26:28.005Z,21.24
2018-05-26T22:28:53.941Z,21.35
2018-05-26T22:31:19.887Z,20.99
2018-05-26T22:33:45.850Z,21.12
2018-05-26T22:36:11.820Z,21.08
2018-05-26T22:38:38.380Z,21.19
2018-05-26T22:41:04.344Z,21.59
2018-05-26T22:43:30.280Z,21.01
2018-05-26T22:45:56.241Z,21.03
2018-05-26T22:48:22.172Z,21.31
2018-05-26T22:50:48.118Z,21.55
2018-05-26T22:53:14.082Z,21.11
2018-05-26T22:55:40.027Z,21.13
2018-05-26T22:58:06.001Z,21.38
2018-05-26T23:00:31.944Z,21.02
2018-05-26T23:02:57.911Z,20.80
2018-05-26T23:05:24.626Z,20.76
2018-05-26T23:07:50.566Z,20.60
2018-05-26T23:10:16.497Z,20.49
2018-05-26T23:12:42.477Z,20.76
2018-05-26T23:15:08.418Z,20.59
2018-05-26T23:17:34.363Z,20.30
2018-05-26T23:20:00.307Z,20.30
2018-05-26T23:22:26.257Z,20.85
2018-05-26T23:24:52.213Z,20.52
2018-05-26T23:27:18.162Z,20.79
2018-05-26T23:29:44.128Z,20.27
2018-05-26T23:32:10.076Z,20.56
2018-05-26T23:34:36.036Z,20.38
2018-05-26T23:37:01.983Z,20.41
2018-05-26T23:39:28.031Z,20.68
2018-05-26T23:41:53.971Z,20.06
2018-05-26T23:44:19.932Z,19.91
2018-05-26T23:46:45.879Z,19.86
2018-05-26T23:49:11.852Z,19.67
2018-05-26T23:51:37.787Z,19.86
2018-05-26T23:54:03.734Z,20.30
2018-05-26T23:56:29.672Z,19.97
2018-05-26T23:58:55.632Z,20.07
